sensor_id;sensor_type;location;lat;lon;timestamp;temperature;humidity
6879;DHT22;3478;51.462;7.338;2022-09-12T00:02:37;15.00;99.90
6879;DHT22;3478;51.462;7.338;2022-09-12T00:07:40;14.90;99.90
6879;DHT22;3478;51.462;7.338;2022-09-12T00:12:42;14.80;99.90
6879;DHT22;3478;51.462;7.338;2022-09-12T00:17:44;14.80;99.90
6879;DHT22;3478;51.462;7.338;2022-09-12T00:22:47;14.70;99.90
6879;DHT22;3478;51.462;7.338;2022-09-12T00:27:49;14.60;99.90
6879;DHT22;3478;51.462;7.338;2022-09-12T00:32:51;14.60;99.90
6879;DHT22;3478;51.462;7.338;2022-09-12T00:37:55;14.60;99.90
6879;DHT22;3478;51.462;7.338;2022-09-12T00:42:57;14.60;99.90
6879;DHT22;3478;51.462;7.338;2022-09-12T00:48:01;14.50;99.90
6879;DHT22;3478;51.462;7.338;2022-09-12T00:53:06;14.50;99.90
6879;DHT22;3478;51.462;7.338;2022-09-12T00:58:13;14.50;99.90
6879;DHT22;3478;51.462;7.338;2022-09-12T01:03:20;14.40;99.90
6879;DHT22;3478;51.462;7.338;2022-09-12T01:08:25;14.40;99.90
6879;DHT22;3478;51.462;7.338;2022-09-12T01:13:28;14.40;99.90
6879;DHT22;3478;51.462;7.338;2022-09-12T01:18:33;14.50;99.90
6879;DHT22;3478;51.462;7.338;2022-09-12T01:29:40;14.40;99.90
6879;DHT22;3478;51.462;7.338;2022-09-12T01:34:49;14.50;99.90
6879;DHT22;3478;51.462;7.338;2022-09-12T01:40:00;14.50;99.90
6879;DHT22;3478;51.462;7.338;2022-09-12T01:45:08;14.40;99.90
6879;DHT22;3478;51.462;7.338;2022-09-12T01:50:14;14.40;99.90
6879;DHT22;3478;51.462;7.338;2022-09-12T01:55:19;14.40;99.90
6879;DHT22;3478;51.462;7.338;2022-09-12T02:00:23;14.30;99.90
6879;DHT22;3478;51.462;7.338;2022-09-12T02:05:30;14.30;99.90
6879;DHT22;3478;51.462;7.338;2022-09-12T02:10:36;14.20;99.90
6879;DHT22;3478;51.462;7.338;2022-09-12T02:15:44;14.10;99.90
6879;DHT22;3478;51.462;7.338;2022-09-12T02:20:50;14.00;99.90
6879;DHT22;3478;51.462;7.338;2022-09-12T02:25:55;14.00;99.90
6879;DHT22;3478;51.462;7.338;2022-09-12T02:31:02;14.00;99.90
6879;DHT22;3478;51.462;7.338;2022-09-12T02:36:13;14.00;99.90
6879;DHT22;3478;51.462;7.338;2022-09-12T02:41:23;14.00;99.90
6879;DHT22;3478;51.462;7.338;2022-09-12T02:46:27;14.00;99.90
6879;DHT22;3478;51.462;7.338;2022-09-12T02:51:33;14.00;99.90
6879;DHT22;3478;51.462;7.338;2022-09-12T02:56:39;14.00;99.90
6879;DHT22;3478;51.462;7.338;2022-09-12T03:01:57;13.90;99.90
6879;DHT22;3478;51.462;7.338;2022-09-12T03:07:10;13.90;99.90
6879;DHT22;3478;51.462;7.338;2022-09-12T03:12:28;14.00;99.90
6879;DHT22;3478;51.462;7.338;2022-09-12T03:17:43;14.00;99.90
6879;DHT22;3478;51.462;7.338;2022-09-12T03:22:53;14.00;99.90
6879;DHT22;3478;51.462;7.338;2022-09-12T03:27:58;14.00;99.90
6879;DHT22;3478;51.462;7.338;2022-09-12T03:33:09;14.00;99.90
6879;DHT22;3478;51.462;7.338;2022-09-12T03:38:12;14.00;99.90
6879;DHT22;3478;51.462;7.338;2022-09-12T03:43:14;13.90;99.90
6879;DHT22;3478;51.462;7.338;2022-09-12T03:48:16;13.80;99.90
6879;DHT22;3478;51.462;7.338;2022-09-12T03:53:19;13.80;99.90
6879;DHT22;3478;51.462;7.338;2022-09-12T03:58:21;13.80;99.90
6879;DHT22;3478;51.462;7.338;2022-09-12T04:03:23;13.80;99.90
6879;DHT22;3478;51.462;7.338;2022-09-12T04:08:26;13.90;99.90
6879;DHT22;3478;51.462;7.338;2022-09-12T04:13:28;13.90;99.90
6879;DHT22;3478;51.462;7.338;2022-09-12T04:18:30;13.90;99.90
6879;DHT22;3478;51.462;7.338;2022-09-12T04:23:34;13.80;99.90
6879;DHT22;3478;51.462;7.338;2022-09-12T04:28:37;13.80;99.90
6879;DHT22;3478;51.462;7.338;2022-09-12T04:33:39;13.80;99.90
6879;DHT22;3478;51.462;7.338;2022-09-12T04:38:43;13.70;99.90
6879;DHT22;3478;51.462;7.338;2022-09-12T04:43:46;13.70;99.90
6879;DHT22;3478;51.462;7.338;2022-09-12T04:48:48;13.70;99.90
6879;DHT22;3478;51.462;7.338;2022-09-12T04:53:53;13.80;99.90
6879;DHT22;3478;51.462;7.338;2022-09-12T04:58:57;13.80;99.90
6879;DHT22;3478;51.462;7.338;2022-09-12T05:04:00;13.80;99.90
6879;DHT22;3478;51.462;7.338;2022-09-12T05:09:05;13.80;99.90
6879;DHT22;3478;51.462;7.338;2022-09-12T05:14:07;13.80;99.90
6879;DHT22;3478;51.462;7.338;2022-09-12T05:19:10;13.80;99.90
6879;DHT22;3478;51.462;7.338;2022-09-12T05:24:13;13.80;99.90
6879;DHT22;3478;51.462;7.338;2022-09-12T05:29:15;13.80;99.90
6879;DHT22;3478;51.462;7.338;2022-09-12T05:34:17;13.80;99.90
6879;DHT22;3478;51.462;7.338;2022-09-12T05:39:20;13.90;99.90
6879;DHT22;3478;51.462;7.338;2022-09-12T05:44:23;13.90;99.90
6879;DHT22;3478;51.462;7.338;2022-09-12T05:49:25;14.00;99.90
6879;DHT22;3478;51.462;7.338;2022-09-12T05:54:28;14.20;99.90
6879;DHT22;3478;51.462;7.338;2022-09-12T05:59:31;14.30;99.90
6879;DHT22;3478;51.462;7.338;2022-09-12T06:04:32;14.50;99.90
6879;DHT22;3478;51.462;7.338;2022-09-12T06:09:36;14.70;99.90
6879;DHT22;3478;51.462;7.338;2022-09-12T06:14:38;14.80;99.90
6879;DHT22;3478;51.462;7.338;2022-09-12T06:19:39;15.00;99.90
6879;DHT22;3478;51.462;7.338;2022-09-12T06:24:43;15.20;99.90
6879;DHT22;3478;51.462;7.338;2022-09-12T06:29:45;15.50;99.90
6879;DHT22;3478;51.462;7.338;2022-09-12T06:34:47;15.80;99.90
6879;DHT22;3478;51.462;7.338;2022-09-12T06:39:50;16.00;99.90
6879;DHT22;3478;51.462;7.338;2022-09-12T06:44:53;16.20;99.90
6879;DHT22;3478;51.462;7.338;2022-09-12T06:49:55;16.30;99.90
6879;DHT22;3478;51.462;7.338;2022-09-12T06:54:58;16.30;99.90
6879;DHT22;3478;51.462;7.338;2022-09-12T07:00:00;16.30;99.90
6879;DHT22;3478;51.462;7.338;2022-09-12T07:05:03;16.50;99.90
6879;DHT22;3478;51.462;7.338;2022-09-12T07:10:07;16.50;99.90
6879;DHT22;3478;51.462;7.338;2022-09-12T07:15:11;16.40;99.90
6879;DHT22;3478;51.462;7.338;2022-09-12T07:20:13;16.40;99.90
6879;DHT22;3478;51.462;7.338;2022-09-12T07:25:17;16.60;99.90
6879;DHT22;3478;51.462;7.338;2022-09-12T07:30:19;16.80;99.90
6879;DHT22;3478;51.462;7.338;2022-09-12T07:35:21;17.10;99.90
6879;DHT22;3478;51.462;7.338;2022-09-12T07:40:25;17.10;99.90
6879;DHT22;3478;51.462;7.338;2022-09-12T07:45:27;17.40;99.90
6879;DHT22;3478;51.462;7.338;2022-09-12T07:50:29;17.50;99.90
6879;DHT22;3478;51.462;7.338;2022-09-12T07:55:32;17.80;99.90
6879;DHT22;3478;51.462;7.338;2022-09-12T08:00:34;17.90;99.90
6879;DHT22;3478;51.462;7.338;2022-09-12T08:05:37;18.00;99.90
6879;DHT22;3478;51.462;7.338;2022-09-12T08:10:40;18.20;99.90
6879;DHT22;3478;51.462;7.338;2022-09-12T08:15:42;18.30;99.90
6879;DHT22;3478;51.462;7.338;2022-09-12T08:20:45;18.50;99.90
6879;DHT22;3478;51.462;7.338;2022-09-12T08:25:48;18.70;99.90
6879;DHT22;3478;51.462;7.338;2022-09-12T08:30:50;18.90;99.90
6879;DHT22;3478;51.462;7.338;2022-09-12T08:35:52;19.10;99.90
6879;DHT22;3478;51.462;7.338;2022-09-12T08:40:59;19.30;99.90
6879;DHT22;3478;51.462;7.338;2022-09-12T08:46:07;19.20;99.90
6879;DHT22;3478;51.462;7.338;2022-09-12T08:51:15;19.10;99.90
6879;DHT22;3478;51.462;7.338;2022-09-12T08:56:19;19.20;99.90
6879;DHT22;3478;51.462;7.338;2022-09-12T09:01:29;19.30;99.90
6879;DHT22;3478;51.462;7.338;2022-09-12T09:06:50;19.50;99.90
6879;DHT22;3478;51.462;7.338;2022-09-12T09:12:03;19.60;99.90
6879;DHT22;3478;51.462;7.338;2022-09-12T09:17:09;19.70;99.90
6879;DHT22;3478;51.462;7.338;2022-09-12T09:22:15;19.90;99.90
6879;DHT22;3478;51.462;7.338;2022-09-12T09:27:25;20.10;99.90
6879;DHT22;3478;51.462;7.338;2022-09-12T09:32:32;20.00;99.90
6879;DHT22;3478;51.462;7.338;2022-09-12T09:37:40;20.30;99.90
6879;DHT22;3478;51.462;7.338;2022-09-12T09:42:51;20.40;99.90
6879;DHT22;3478;51.462;7.338;2022-09-12T09:47:59;20.40;99.90
6879;DHT22;3478;51.462;7.338;2022-09-12T09:53:04;20.60;99.90
6879;DHT22;3478;51.462;7.338;2022-09-12T09:58:11;20.80;99.90
6879;DHT22;3478;51.462;7.338;2022-09-12T10:03:33;20.90;99.90
6879;DHT22;3478;51.462;7.338;2022-09-12T10:08:36;21.00;99.90
6879;DHT22;3478;51.462;7.338;2022-09-12T10:13:51;21.30;99.90
6879;DHT22;3478;51.462;7.338;2022-09-12T10:18:55;21.80;99.90
6879;DHT22;3478;51.462;7.338;2022-09-12T10:24:15;22.20;99.90
6879;DHT22;3478;51.462;7.338;2022-09-12T10:29:25;22.40;99.90
6879;DHT22;3478;51.462;7.338;2022-09-12T10:34:29;22.40;99.90
6879;DHT22;3478;51.462;7.338;2022-09-12T10:39:34;22.80;99.90
6879;DHT22;3478;51.462;7.338;2022-09-12T10:44:51;23.50;99.90
6879;DHT22;3478;51.462;7.338;2022-09-12T10:50:24;24.10;99.90
6879;DHT22;3478;51.462;7.338;2022-09-12T10:55:29;24.30;99.90
6879;DHT22;3478;51.462;7.338;2022-09-12T11:00:38;24.90;99.90
6879;DHT22;3478;51.462;7.338;2022-09-12T11:05:52;25.60;99.90
6879;DHT22;3478;51.462;7.338;2022-09-12T11:11:01;26.20;99.90
6879;DHT22;3478;51.462;7.338;2022-09-12T11:16:13;26.60;99.90
6879;DHT22;3478;51.462;7.338;2022-09-12T11:21:25;26.20;99.90
6879;DHT22;3478;51.462;7.338;2022-09-12T11:26:47;26.10;99.90
6879;DHT22;3478;51.462;7.338;2022-09-12T11:32:25;26.70;99.90
6879;DHT22;3478;51.462;7.338;2022-09-12T11:37:44;27.30;99.90
6879;DHT22;3478;51.462;7.338;2022-09-12T11:42:52;28.20;97.40
6879;DHT22;3478;51.462;7.338;2022-09-12T11:48:04;29.00;95.20
6879;DHT22;3478;51.462;7.338;2022-09-12T11:53:14;28.70;93.30
6879;DHT22;3478;51.462;7.338;2022-09-12T11:58:20;29.70;94.80
6879;DHT22;3478;51.462;7.338;2022-09-12T12:03:30;29.90;93.50
6879;DHT22;3478;51.462;7.338;2022-09-12T12:08:38;29.00;89.10
6879;DHT22;3478;51.462;7.338;2022-09-12T12:13:45;29.70;91.20
6879;DHT22;3478;51.462;7.338;2022-09-12T12:18:55;30.20;87.80
6879;DHT22;3478;51.462;7.338;2022-09-12T12:24:13;29.70;84.70
6879;DHT22;3478;51.462;7.338;2022-09-12T12:29:35;29.40;83.10
6879;DHT22;3478;51.462;7.338;2022-09-12T12:34:40;30.50;82.80
6879;DHT22;3478;51.462;7.338;2022-09-12T12:39:57;30.60;81.60
6879;DHT22;3478;51.462;7.338;2022-09-12T12:45:03;30.60;79.40
6879;DHT22;3478;51.462;7.338;2022-09-12T12:50:28;30.90;80.20
6879;DHT22;3478;51.462;7.338;2022-09-12T12:55:32;31.40;78.70
6879;DHT22;3478;51.462;7.338;2022-09-12T13:00:38;31.50;76.50
6879;DHT22;3478;51.462;7.338;2022-09-12T13:05:45;30.50;74.60
6879;DHT22;3478;51.462;7.338;2022-09-12T13:10:49;30.80;77.60
6879;DHT22;3478;51.462;7.338;2022-09-12T13:15:52;31.80;73.90
6879;DHT22;3478;51.462;7.338;2022-09-12T13:21:03;32.90;71.20
6879;DHT22;3478;51.462;7.338;2022-09-12T13:26:10;33.10;66.70
6879;DHT22;3478;51.462;7.338;2022-09-12T13:31:18;32.90;64.10
6879;DHT22;3478;51.462;7.338;2022-09-12T13:36:55;33.40;64.10
6879;DHT22;3478;51.462;7.338;2022-09-12T13:42:17;32.70;61.70
6879;DHT22;3478;51.462;7.338;2022-09-12T13:47:25;32.80;60.50
6879;DHT22;3478;51.462;7.338;2022-09-12T13:52:32;33.20;59.60
6879;DHT22;3478;51.462;7.338;2022-09-12T13:57:36;33.50;57.50
6879;DHT22;3478;51.462;7.338;2022-09-12T14:02:41;33.70;59.00
6879;DHT22;3478;51.462;7.338;2022-09-12T14:07:54;33.80;59.30
6879;DHT22;3478;51.462;7.338;2022-09-12T14:12:59;33.60;56.80
6879;DHT22;3478;51.462;7.338;2022-09-12T14:18:03;33.20;57.90
6879;DHT22;3478;51.462;7.338;2022-09-12T14:23:23;33.00;57.30
6879;DHT22;3478;51.462;7.338;2022-09-12T14:28:26;32.60;58.40
6879;DHT22;3478;51.462;7.338;2022-09-12T14:33:33;32.80;58.40
6879;DHT22;3478;51.462;7.338;2022-09-12T14:38:49;32.60;59.20
6879;DHT22;3478;51.462;7.338;2022-09-12T14:43:54;32.60;59.20
6879;DHT22;3478;51.462;7.338;2022-09-12T14:49:00;33.30;60.80
6879;DHT22;3478;51.462;7.338;2022-09-12T14:54:04;33.30;59.20
6879;DHT22;3478;51.462;7.338;2022-09-12T14:59:26;32.90;57.10
6879;DHT22;3478;51.462;7.338;2022-09-12T15:04:38;33.30;56.90
6879;DHT22;3478;51.462;7.338;2022-09-12T15:09:42;33.20;58.50
6879;DHT22;3478;51.462;7.338;2022-09-12T15:14:44;33.30;58.10
6879;DHT22;3478;51.462;7.338;2022-09-12T15:19:46;32.90;56.10
6879;DHT22;3478;51.462;7.338;2022-09-12T15:24:49;32.00;55.50
6879;DHT22;3478;51.462;7.338;2022-09-12T15:29:51;31.50;56.80
6879;DHT22;3478;51.462;7.338;2022-09-12T15:34:53;31.80;58.00
6879;DHT22;3478;51.462;7.338;2022-09-12T15:39:56;31.00;56.20
6879;DHT22;3478;51.462;7.338;2022-09-12T15:44:58;30.90;56.70
6879;DHT22;3478;51.462;7.338;2022-09-12T15:50:00;31.00;56.70
6879;DHT22;3478;51.462;7.338;2022-09-12T15:55:03;31.70;58.30
6879;DHT22;3478;51.462;7.338;2022-09-12T16:00:07;32.40;57.10
6879;DHT22;3478;51.462;7.338;2022-09-12T16:05:13;32.20;56.20
6879;DHT22;3478;51.462;7.338;2022-09-12T16:10:18;32.00;55.50
6879;DHT22;3478;51.462;7.338;2022-09-12T16:15:22;32.10;56.00
6879;DHT22;3478;51.462;7.338;2022-09-12T16:20:24;31.90;54.90
6879;DHT22;3478;51.462;7.338;2022-09-12T16:25:28;30.90;57.80
6879;DHT22;3478;51.462;7.338;2022-09-12T16:30:29;29.90;58.90
6879;DHT22;3478;51.462;7.338;2022-09-12T16:35:31;29.70;60.60
6879;DHT22;3478;51.462;7.338;2022-09-12T16:40:34;28.80;61.20
6879;DHT22;3478;51.462;7.338;2022-09-12T16:45:36;28.50;65.30
6879;DHT22;3478;51.462;7.338;2022-09-12T16:50:38;28.70;66.50
6879;DHT22;3478;51.462;7.338;2022-09-12T16:55:48;28.60;64.10
6879;DHT22;3478;51.462;7.338;2022-09-12T17:00:58;28.70;67.20
6879;DHT22;3478;51.462;7.338;2022-09-12T17:06:02;28.20;66.80
6879;DHT22;3478;51.462;7.338;2022-09-12T17:11:07;27.40;69.80
6879;DHT22;3478;51.462;7.338;2022-09-12T17:16:10;26.70;72.20
6879;DHT22;3478;51.462;7.338;2022-09-12T17:21:12;26.10;76.90
6879;DHT22;3478;51.462;7.338;2022-09-12T17:26:16;25.50;77.00
6879;DHT22;3478;51.462;7.338;2022-09-12T17:31:17;25.00;79.30
6879;DHT22;3478;51.462;7.338;2022-09-12T17:36:19;24.60;81.40
6879;DHT22;3478;51.462;7.338;2022-09-12T17:41:25;24.20;84.70
6879;DHT22;3478;51.462;7.338;2022-09-12T17:46:30;23.90;86.30
6879;DHT22;3478;51.462;7.338;2022-09-12T17:51:34;23.60;89.00
6879;DHT22;3478;51.462;7.338;2022-09-12T17:56:38;23.30;90.20
6879;DHT22;3478;51.462;7.338;2022-09-12T18:01:40;23.00;91.20
6879;DHT22;3478;51.462;7.338;2022-09-12T18:06:59;22.70;92.00
6879;DHT22;3478;51.462;7.338;2022-09-12T18:12:03;22.50;93.70
6879;DHT22;3478;51.462;7.338;2022-09-12T18:17:06;22.30;94.50
6879;DHT22;3478;51.462;7.338;2022-09-12T18:22:08;22.00;95.20
6879;DHT22;3478;51.462;7.338;2022-09-12T18:27:12;21.90;96.90
6879;DHT22;3478;51.462;7.338;2022-09-12T18:32:13;21.70;98.40
6879;DHT22;3478;51.462;7.338;2022-09-12T18:37:15;21.60;99.90
6879;DHT22;3478;51.462;7.338;2022-09-12T18:42:18;21.50;99.90
6879;DHT22;3478;51.462;7.338;2022-09-12T18:47:20;21.30;99.90
6879;DHT22;3478;51.462;7.338;2022-09-12T18:52:22;21.30;99.90
6879;DHT22;3478;51.462;7.338;2022-09-12T18:57:26;21.30;99.90
6879;DHT22;3478;51.462;7.338;2022-09-12T19:02:30;21.20;99.90
6879;DHT22;3478;51.462;7.338;2022-09-12T19:07:31;21.00;99.90
6879;DHT22;3478;51.462;7.338;2022-09-12T19:12:35;20.90;99.90
6879;DHT22;3478;51.462;7.338;2022-09-12T19:17:36;20.80;99.90
6879;DHT22;3478;51.462;7.338;2022-09-12T19:22:38;20.80;99.90
6879;DHT22;3478;51.462;7.338;2022-09-12T19:27:41;20.80;99.90
6879;DHT22;3478;51.462;7.338;2022-09-12T19:32:43;20.80;99.90
6879;DHT22;3478;51.462;7.338;2022-09-12T19:37:45;20.80;99.90
6879;DHT22;3478;51.462;7.338;2022-09-12T19:42:48;20.70;99.90
6879;DHT22;3478;51.462;7.338;2022-09-12T19:47:50;20.60;99.90
6879;DHT22;3478;51.462;7.338;2022-09-12T19:52:52;20.60;99.90
6879;DHT22;3478;51.462;7.338;2022-09-12T19:57:55;20.60;99.90
6879;DHT22;3478;51.462;7.338;2022-09-12T20:02:57;20.70;99.90
6879;DHT22;3478;51.462;7.338;2022-09-12T20:07:59;20.70;99.90
6879;DHT22;3478;51.462;7.338;2022-09-12T20:13:04;20.80;99.90
6879;DHT22;3478;51.462;7.338;2022-09-12T20:18:06;20.80;99.90
6879;DHT22;3478;51.462;7.338;2022-09-12T20:23:08;20.80;99.90
6879;DHT22;3478;51.462;7.338;2022-09-12T20:28:11;20.80;99.90
6879;DHT22;3478;51.462;7.338;2022-09-12T20:33:13;20.80;99.90
6879;DHT22;3478;51.462;7.338;2022-09-12T20:38:15;20.80;99.90
6879;DHT22;3478;51.462;7.338;2022-09-12T20:43:18;20.80;99.90
6879;DHT22;3478;51.462;7.338;2022-09-12T20:48:21;20.70;99.90
6879;DHT22;3478;51.462;7.338;2022-09-12T20:53:22;20.70;99.90
6879;DHT22;3478;51.462;7.338;2022-09-12T20:58:26;20.60;99.90
6879;DHT22;3478;51.462;7.338;2022-09-12T21:03:28;20.60;99.90
6879;DHT22;3478;51.462;7.338;2022-09-12T21:08:30;20.60;99.90
6879;DHT22;3478;51.462;7.338;2022-09-12T21:13:33;20.60;99.90
6879;DHT22;3478;51.462;7.338;2022-09-12T21:18:35;20.60;99.90
6879;DHT22;3478;51.462;7.338;2022-09-12T21:23:38;20.50;99.90
6879;DHT22;3478;51.462;7.338;2022-09-12T21:28:41;20.50;99.90
6879;DHT22;3478;51.462;7.338;2022-09-12T21:33:43;20.50;99.90
6879;DHT22;3478;51.462;7.338;2022-09-12T21:38:44;20.40;99.90
6879;DHT22;3478;51.462;7.338;2022-09-12T21:43:48;20.30;99.90
6879;DHT22;3478;51.462;7.338;2022-09-12T21:48:49;20.30;99.90
6879;DHT22;3478;51.462;7.338;2022-09-12T21:53:51;20.20;99.90
6879;DHT22;3478;51.462;7.338;2022-09-12T21:58:55;20.10;99.90
6879;DHT22;3478;51.462;7.338;2022-09-12T22:03:57;20.10;99.90
6879;DHT22;3478;51.462;7.338;2022-09-12T22:08:59;20.20;99.90
6879;DHT22;3478;51.462;7.338;2022-09-12T22:14:02;20.10;99.90
6879;DHT22;3478;51.462;7.338;2022-09-12T22:19:04;20.10;99.90
6879;DHT22;3478;51.462;7.338;2022-09-12T22:24:07;20.10;99.90
6879;DHT22;3478;51.462;7.338;2022-09-12T22:29:29;20.10;99.90
6879;DHT22;3478;51.462;7.338;2022-09-12T22:34:31;20.10;99.90
6879;DHT22;3478;51.462;7.338;2022-09-12T22:39:33;20.10;99.90
6879;DHT22;3478;51.462;7.338;2022-09-12T22:44:36;20.00;99.90
6879;DHT22;3478;51.462;7.338;2022-09-12T22:49:38;20.00;99.90
6879;DHT22;3478;51.462;7.338;2022-09-12T22:54:40;19.90;99.90
6879;DHT22;3478;51.462;7.338;2022-09-12T22:59:43;19.90;99.90
6879;DHT22;3478;51.462;7.338;2022-09-12T23:04:45;19.90;99.90
6879;DHT22;3478;51.462;7.338;2022-09-12T23:09:48;19.90;99.90
6879;DHT22;3478;51.462;7.338;2022-09-12T23:14:51;19.80;99.90
6879;DHT22;3478;51.462;7.338;2022-09-12T23:19:53;19.80;99.90
6879;DHT22;3478;51.462;7.338;2022-09-12T23:24:55;19.80;99.90
6879;DHT22;3478;51.462;7.338;2022-09-12T23:29:58;19.70;99.90
6879;DHT22;3478;51.462;7.338;2022-09-12T23:35:00;19.70;99.90
6879;DHT22;3478;51.462;7.338;2022-09-12T23:40:03;19.70;99.90
6879;DHT22;3478;51.462;7.338;2022-09-12T23:45:07;19.60;99.90
6879;DHT22;3478;51.462;7.338;2022-09-12T23:50:09;19.60;99.90
6879;DHT22;3478;51.462;7.338;2022-09-12T23:55:11;19.50;99.90
